Time;durP1;ratioP1;P1;durP2;ratioP2;P2;SDS_P1;SDS_P2;PMS_P1;PMS_P2;Temp;Humidity;BMP_temperature;BMP_pressure;BME280_temperature;BME280_humidity;BME280_pressure;Samples;Min_cycle;Max_cycle;Signal;HPM_P1;HPM_P2
2021/10/27 00:01:49;;;;;;;;;;;;;;;19.80;62.71;101885.06;5027956;28;1471;-68
2021/10/27 00:04:16;;;;;;;;;;;;;;;19.67;62.91;101885.06;5030653;28;1981;-54
2021/10/27 00:06:43;;;;;;;;;;;;;;;19.57;63.68;101892.91;5032221;28;1509;-67
2021/10/27 00:09:10;;;;;;;;;;;;;;;19.67;62.42;101888.59;5026526;28;1457;-67
2021/10/27 00:11:36;;;;;;;;;;;;;;;19.88;62.77;101879.97;5034509;28;1308;-55
2021/10/27 00:14:04;;;;;;;;;;;;;;;19.70;63.53;101874.09;5029874;28;1469;-67
2021/10/27 00:16:31;;;;;;;;;;;;;;;19.57;63.96;101875.97;5028234;28;1378;-56
2021/10/27 00:18:58;;;;;;;;;;;;;;;19.67;62.42;101877.84;5024382;28;1517;-67
2021/10/27 00:21:25;;;;;;;;;;;;;;;19.85;62.12;101878.34;5028276;28;1473;-67
2021/10/27 00:23:51;;;;;;;;;;;;;;;19.73;63.23;101873.91;5029420;28;1984;-55
2021/10/27 00:26:18;;;;;;;;;;;;;;;19.59;63.95;101872.19;5032013;28;1400;-67
2021/10/27 00:28:44;;;;;;;;;;;;;;;19.60;62.54;101865.88;5032079;28;1596;-55
2021/10/27 00:31:12;;;;;;;;;;;;;;;19.86;61.90;101866.66;5017305;28;1595;-54
2021/10/27 00:33:40;;;;;;;;;;;;;;;19.77;62.69;101880.75;5025155;28;1464;-67
2021/10/27 00:36:07;;;;;;;;;;;;;;;19.63;63.42;101867.47;5028211;28;1406;-67
2021/10/27 00:38:34;;;;;;;;;;;;;;;19.58;62.57;101872.34;5029402;28;1531;-67
2021/10/27 00:41:00;;;;;;;;;;;;;;;19.75;62.07;101863.06;5029208;28;1320;-55
2021/10/27 00:43:27;;;;;;;;;;;;;;;19.78;62.34;101876.25;5035174;28;1903;-54
2021/10/27 00:45:53;;;;;;;;;;;;;;;19.65;62.02;101860.16;5028507;28;1462;-67
2021/10/27 00:48:21;;;;;;;;;;;;;;;19.56;61.81;101868.91;5029827;28;1881;-68
2021/10/27 00:50:48;;;;;;;;;;;;;;;19.64;61.73;101869.19;5030847;28;1876;-55
2021/10/27 00:53:14;;;;;;;;;;;;;;;19.89;61.35;101856.66;5031887;28;1417;-55
2021/10/27 00:55:41;;;;;;;;;;;;;;;19.70;61.79;101866.06;5032485;28;1398;-66
2021/10/27 00:58:08;;;;;;;;;;;;;;;19.55;62.20;101857.28;5029188;28;1344;-55
2021/10/27 01:00:35;;;;;;;;;;;;;;;19.60;61.97;101865.03;5029196;28;1462;-54
2021/10/27 01:03:02;;;;;;;;;;;;;;;19.84;61.56;101863.22;5024139;28;1906;-54
2021/10/27 01:05:30;;;;;;;;;;;;;;;19.71;62.26;101861.53;5031434;28;1518;-55
2021/10/27 01:07:57;;;;;;;;;;;;;;;19.61;62.44;101874.78;5025337;28;1465;-54
2021/10/27 01:10:23;;;;;;;;;;;;;;;19.59;61.33;101868.66;5031118;28;1473;-54
2021/10/27 01:12:50;;;;;;;;;;;;;;;19.82;61.23;101877.75;5028937;28;1461;-67
2021/10/27 01:15:18;;;;;;;;;;;;;;;19.79;61.31;101873.44;5026167;28;1635;-67
2021/10/27 01:17:45;;;;;;;;;;;;;;;19.62;62.43;101874.66;5028951;28;1399;-55
2021/10/27 01:20:13;;;;;;;;;;;;;;;19.58;61.21;101872.34;5023028;28;1634;-67
2021/10/27 01:22:40;;;;;;;;;;;;;;;19.77;61.48;101867.31;5021804;28;1496;-67
2021/10/27 01:25:08;;;;;;;;;;;;;;;19.77;60.87;101855.75;5030124;28;1975;-67
2021/10/27 01:27:38;;;;;;;;;;;;;;;19.55;61.73;101861.81;5037122;28;1579;-54
2021/10/27 01:30:05;;;;;;;;;;;;;;;19.57;61.26;101851.81;5031610;28;1296;-67
2021/10/27 01:32:37;;;;;;;;;;;;;;;19.72;60.35;101865.97;5024701;28;1745;-55
2021/10/27 01:35:03;;;;;;;;;;;;;;;19.78;61.85;101857.47;5030792;28;1454;-55
2021/10/27 01:37:31;;;;;;;;;;;;;;;19.60;62.14;101873.06;5024288;28;1437;-67
2021/10/27 01:39:58;;;;;;;;;;;;;;;19.58;60.84;101867.81;5026571;28;1449;-54
2021/10/27 01:42:24;;;;;;;;;;;;;;;19.65;61.80;101868.22;5034303;28;1351;-67
2021/10/27 01:44:51;;;;;;;;;;;;;;;19.90;60.16;101874.50;5028766;28;1910;-55
2021/10/27 01:47:18;;;;;;;;;;;;;;;19.72;61.18;101869.50;5030540;28;1366;-67
2021/10/27 01:49:45;;;;;;;;;;;;;;;19.59;61.36;101864.16;5030981;28;1382;-68
2021/10/27 01:52:12;;;;;;;;;;;;;;;19.63;60.47;101854.03;5028794;28;1513;-54
2021/10/27 01:54:40;;;;;;;;;;;;;;;19.84;60.56;101873.97;5028099;28;1421;-54
2021/10/27 01:57:07;;;;;;;;;;;;;;;19.70;61.71;101870.56;5028741;28;1307;-55
2021/10/27 01:59:34;;;;;;;;;;;;;;;19.54;61.34;101866.31;5030753;28;1389;-67
2021/10/27 02:02:01;;;;;;;;;;;;;;;19.57;61.56;101873.28;5020052;28;1544;-55
2021/10/27 02:04:27;;;;;;;;;;;;;;;19.88;60.28;101881.81;5027119;28;1929;-67
2021/10/27 02:06:54;;;;;;;;;;;;;;;19.71;61.47;101877.63;5025992;28;1547;-55
2021/10/27 02:09:20;;;;;;;;;;;;;;;19.60;60.71;101873.91;5024517;28;1508;-67
2021/10/27 02:11:49;;;;;;;;;;;;;;;19.55;60.98;101872.53;5027415;28;1333;-54
2021/10/27 02:14:16;;;;;;;;;;;;;;;19.77;60.92;101878.06;5026254;28;1441;-67
2021/10/27 02:16:42;;;;;;;;;;;;;;;19.77;60.94;101872.69;5030283;28;1564;-67
2021/10/27 02:19:09;;;;;;;;;;;;;;;19.59;60.89;101877.56;5026605;28;1585;-67
2021/10/27 02:21:36;;;;;;;;;;;;;;;19.49;60.88;101871.16;5029157;28;1461;-67
2021/10/27 02:24:03;;;;;;;;;;;;;;;19.71;61.00;101870.47;5025131;28;1906;-54
2021/10/27 02:26:30;;;;;;;;;;;;;;;19.82;59.92;101869.69;5031068;28;1367;-67
2021/10/27 02:28:57;;;;;;;;;;;;;;;19.66;60.13;101870.78;5028334;28;1524;-54
2021/10/27 02:31:24;;;;;;;;;;;;;;;19.56;61.40;101887.69;5024232;28;1534;-67
2021/10/27 02:33:52;;;;;;;;;;;;;;;19.67;60.98;101877.00;5027490;28;1546;-67
2021/10/27 02:36:18;;;;;;;;;;;;;;;19.80;59.91;101895.78;5025947;28;1484;-54
2021/10/27 02:38:45;;;;;;;;;;;;;;;19.65;61.08;101887.84;5034466;28;1522;-55
2021/10/27 02:41:12;;;;;;;;;;;;;;;19.57;60.80;101897.44;5028848;28;1348;-67
2021/10/27 02:43:39;;;;;;;;;;;;;;;19.66;60.49;101888.72;5030805;28;1977;-54
2021/10/27 02:46:07;;;;;;;;;;;;;;;19.97;60.27;101891.84;5028245;28;1477;-67
2021/10/27 02:48:34;;;;;;;;;;;;;;;19.71;59.67;101900.00;5032553;28;1500;-54
2021/10/27 02:51:01;;;;;;;;;;;;;;;19.58;60.65;101896.47;5031308;28;1560;-55
2021/10/27 02:53:27;;;;;;;;;;;;;;;19.57;59.98;101886.69;5021065;28;1874;-55
2021/10/27 02:55:54;;;;;;;;;;;;;;;19.82;59.68;101893.84;5032764;28;1343;-67
2021/10/27 02:58:20;;;;;;;;;;;;;;;19.78;59.50;101895.91;5034084;28;1574;-67
2021/10/27 03:00:47;;;;;;;;;;;;;;;19.59;59.98;101890.13;5030402;28;1704;-56
2021/10/27 03:03:15;;;;;;;;;;;;;;;19.52;60.36;101891.53;5030989;28;1411;-67
2021/10/27 03:05:41;;;;;;;;;;;;;;;19.77;59.56;101906.75;5028650;28;1906;-55
2021/10/27 03:08:08;;;;;;;;;;;;;;;19.74;60.42;101905.16;5031548;28;1335;-55
2021/10/27 03:10:35;;;;;;;;;;;;;;;19.62;59.85;101906.00;5030698;28;1714;-67
2021/10/27 03:13:01;;;;;;;;;;;;;;;19.51;60.15;101908.59;5034037;28;1355;-68
2021/10/27 03:15:28;;;;;;;;;;;;;;;19.70;59.41;101902.78;5030701;28;1438;-67
2021/10/27 03:17:54;;;;;;;;;;;;;;;19.86;59.42;101904.22;5030116;28;1396;-55
2021/10/27 03:20:22;;;;;;;;;;;;;;;19.69;60.63;101918.00;5033566;28;1489;-67
2021/10/27 03:22:49;;;;;;;;;;;;;;;19.55;61.45;101915.47;5043638;28;1120;-54
2021/10/27 03:25:16;;;;;;;;;;;;;;;19.63;60.52;101913.94;5031116;28;1977;-57
2021/10/27 03:27:42;;;;;;;;;;;;;;;19.93;59.73;101909.16;5030592;28;1481;-55
2021/10/27 03:30:09;;;;;;;;;;;;;;;19.79;60.90;101907.47;5031837;28;1639;-55
2021/10/27 03:32:36;;;;;;;;;;;;;;;19.59;60.23;101903.53;5025974;28;1471;-61
2021/10/27 03:35:02;;;;;;;;;;;;;;;19.50;60.89;101906.88;5027002;28;1442;-67
2021/10/27 03:37:31;;;;;;;;;;;;;;;19.73;60.24;101900.72;5029297;28;1432;-54
2021/10/27 03:39:57;;;;;;;;;;;;;;;19.92;59.18;101907.44;5033151;28;1371;-67
2021/10/27 03:42:24;;;;;;;;;;;;;;;19.68;61.05;101919.84;5030657;28;1995;-67
2021/10/27 03:44:50;;;;;;;;;;;;;;;19.51;60.40;101914.81;5033350;28;1910;-67
2021/10/27 03:47:17;;;;;;;;;;;;;;;19.59;59.92;101909.75;5029488;28;1559;-55
2021/10/27 03:49:44;;;;;;;;;;;;;;;19.86;59.66;101928.41;5026996;28;1402;-55
2021/10/27 03:52:10;;;;;;;;;;;;;;;19.64;60.73;101909.44;5034664;28;1587;-54
2021/10/27 03:54:38;;;;;;;;;;;;;;;19.44;61.08;101910.88;5029932;28;1648;-66
2021/10/27 03:57:05;;;;;;;;;;;;;;;19.37;61.76;101923.88;5024376;28;1441;-55
2021/10/27 03:59:32;;;;;;;;;;;;;;;19.30;61.39;101919.94;5032867;28;1523;-54
2021/10/27 04:01:58;;;;;;;;;;;;;;;19.30;61.47;101922.59;5025689;28;1421;-67
2021/10/27 04:04:25;;;;;;;;;;;;;;;19.38;60.61;101933.63;5030941;28;2002;-67
2021/10/27 04:06:52;;;;;;;;;;;;;;;19.40;60.81;101920.13;5032204;28;1410;-60
2021/10/27 04:09:18;;;;;;;;;;;;;;;19.39;60.15;101918.41;5029413;28;1493;-67
2021/10/27 04:11:46;;;;;;;;;;;;;;;19.39;60.96;101916.56;5032303;28;1257;-59
2021/10/27 04:14:13;;;;;;;;;;;;;;;19.34;60.04;101924.09;5028695;28;1520;-58
2021/10/27 04:16:39;;;;;;;;;;;;;;;19.27;60.78;101920.97;5031236;28;1515;-70
2021/10/27 04:19:06;;;;;;;;;;;;;;;19.31;60.79;101913.56;5031017;28;1555;-58
2021/10/27 04:21:33;;;;;;;;;;;;;;;19.64;59.54;101914.81;5030740;28;1490;-65
2021/10/27 04:23:59;;;;;;;;;;;;;;;19.89;60.38;101926.44;5027735;28;1906;-69
2021/10/27 04:26:26;;;;;;;;;;;;;;;19.94;59.90;101927.84;5028175;28;1319;-64
2021/10/27 04:28:54;;;;;;;;;;;;;;;19.72;61.14;101941.13;5032245;28;1482;-55
2021/10/27 04:31:21;;;;;;;;;;;;;;;19.47;60.83;101932.97;5025763;28;1491;-70
2021/10/27 04:33:48;;;;;;;;;;;;;;;19.54;61.31;101935.22;5027049;28;1447;-69
2021/10/27 04:36:15;;;;;;;;;;;;;;;19.76;61.04;101935.41;5028148;28;1448;-60
2021/10/27 04:38:41;;;;;;;;;;;;;;;19.64;60.51;101926.41;5032691;28;1500;-71
2021/10/27 04:41:08;;;;;;;;;;;;;;;19.45;61.52;101934.91;5034342;28;1502;-59
2021/10/27 04:43:35;;;;;;;;;;;;;;;19.41;61.07;101941.44;5032029;28;1526;-65
2021/10/27 04:46:03;;;;;;;;;;;;;;;19.58;60.59;101934.03;5029330;28;1906;-53
2021/10/27 04:48:29;;;;;;;;;;;;;;;19.68;61.45;101943.13;5024250;28;1710;-52
2021/10/27 04:50:56;;;;;;;;;;;;;;;19.60;60.78;101948.19;5028707;28;1589;-66
2021/10/27 04:53:25;;;;;;;;;;;;;;;19.49;62.08;101948.97;5029351;28;1591;-67
2021/10/27 04:55:52;;;;;;;;;;;;;;;19.48;60.85;101940.06;5033498;28;1536;-53
2021/10/27 04:58:18;;;;;;;;;;;;;;;19.58;61.03;101960.88;5030502;28;1553;-52
2021/10/27 05:00:45;;;;;;;;;;;;;;;19.54;61.09;101952.19;5026384;28;1464;-54
2021/10/27 05:03:14;;;;;;;;;;;;;;;19.46;61.16;101952.72;5031124;28;1424;-63
2021/10/27 05:05:47;;;;;;;;;;;;;;;19.61;60.99;101968.69;5033201;28;1906;-52
2021/10/27 05:08:15;;;;;;;;;;;;;;;19.77;61.26;101963.09;5029101;28;1461;-52
2021/10/27 05:10:42;;;;;;;;;;;;;;;19.64;62.24;101969.31;5026135;28;1517;-66
2021/10/27 05:13:08;;;;;;;;;;;;;;;19.54;61.13;101968.28;5031790;28;1479;-55
2021/10/27 05:15:35;;;;;;;;;;;;;;;19.50;61.27;101973.94;5032088;28;1497;-56
2021/10/27 05:18:02;;;;;;;;;;;;;;;19.64;61.04;101982.75;5031801;28;1570;-57
2021/10/27 05:20:30;;;;;;;;;;;;;;;19.61;61.62;101976.72;5029395;28;1508;-56
2021/10/27 05:22:57;;;;;;;;;;;;;;;19.72;61.66;101997.47;5024871;28;1292;-55
2021/10/27 05:25:23;;;;;;;;;;;;;;;19.66;61.03;101988.84;5031962;28;1983;-58
2021/10/27 05:27:50;;;;;;;;;;;;;;;19.58;61.79;101982.34;5029678;28;1741;-56
2021/10/27 05:30:17;;;;;;;;;;;;;;;19.68;61.04;101991.44;5034144;28;1784;-57
2021/10/27 05:32:43;;;;;;;;;;;;;;;19.72;61.81;101992.13;5028930;28;2000;-55
2021/10/27 05:35:10;;;;;;;;;;;;;;;19.72;61.91;101992.13;5019201;28;1591;-57
2021/10/27 05:37:38;;;;;;;;;;;;;;;19.68;61.50;101991.44;5026296;28;1398;-56
2021/10/27 05:40:06;;;;;;;;;;;;;;;19.68;60.85;101999.50;5030518;28;1522;-56
2021/10/27 05:42:33;;;;;;;;;;;;;;;19.77;61.37;102001.53;4996548;28;11220;-59
2021/10/27 05:45:03;;;;;;;;;;;;;;;19.75;62.18;102008.84;4987672;28;11088;-56
2021/10/27 05:47:30;;;;;;;;;;;;;;;19.80;61.83;102027.31;5027886;28;1622;-56
2021/10/27 05:50:08;;;;;;;;;;;;;;;19.69;62.90;102017.28;5027688;28;1457;-57
2021/10/27 05:55:27;;;;;;;;;;;;;;;19.89;61.34;102039.19;5024601;28;1910;-56
2021/10/27 05:57:54;;;;;;;;;;;;;;;19.88;61.36;102040.19;5029807;28;1488;-57
2021/10/27 06:00:21;;;;;;;;;;;;;;;19.61;56.68;102027.72;5030512;28;1164;-59
2021/10/27 06:02:47;;;;;;;;;;;;;;;19.54;58.04;102045.25;5008942;28;1425;-57
2021/10/27 06:05:14;;;;;;;;;;;;;;;19.65;60.14;102045.31;5003186;28;1497;-57
2021/10/27 06:07:40;;;;;;;;;;;;;;;19.76;60.37;102045.47;5010085;28;1467;-57
2021/10/27 06:10:08;;;;;;;;;;;;;;;19.86;61.25;102049.19;5009912;28;1411;-57
2021/10/27 06:12:35;;;;;;;;;;;;;;;19.84;60.35;102045.75;5008323;28;1320;-56
2021/10/27 06:15:02;;;;;;;;;;;;;;;19.71;61.08;102052.06;5009733;28;1980;-56
2021/10/27 06:17:30;;;;;;;;;;;;;;;19.77;62.14;102063.25;5007649;28;1505;-57
2021/10/27 06:19:57;;;;;;;;;;;;;;;19.74;61.86;102060.81;5014677;28;1501;-57
2021/10/27 06:22:23;;;;;;;;;;;;;;;19.68;61.91;102056.69;5014554;28;1476;-56
2021/10/27 06:24:53;;;;;;;;;;;;;;;19.70;61.96;102069.16;5015213;28;1478;-56
2021/10/27 06:27:20;;;;;;;;;;;;;;;19.77;61.35;102065.94;5016943;28;1330;-57
2021/10/27 06:29:53;;;;;;;;;;;;;;;19.75;61.18;102067.03;5010058;28;1442;-56
2021/10/27 06:32:28;;;;;;;;;;;;;;;19.75;62.28;102085.81;5003501;28;1823;-56
2021/10/27 06:34:58;;;;;;;;;;;;;;;19.66;62.46;102090.00;5011738;28;1984;-56
2021/10/27 06:37:45;;;;;;;;;;;;;;;19.66;62.49;102092.66;5006705;28;1560;-56
2021/10/27 06:46:11;;;;;;;;;;;;;;;19.61;61.58;102092.13;5012140;28;1513;-56
2021/10/27 06:48:38;;;;;;;;;;;;;;;19.66;62.57;102100.72;5004543;28;1863;-56
2021/10/27 06:51:04;;;;;;;;;;;;;;;19.71;61.33;102086.97;5010839;28;1457;-56
2021/10/27 06:53:31;;;;;;;;;;;;;;;19.69;62.51;102081.69;5012051;28;1341;-56
2021/10/27 06:55:59;;;;;;;;;;;;;;;19.67;62.57;102081.81;5019177;28;1906;-56
2021/10/27 06:58:26;;;;;;;;;;;;;;;19.60;62.21;102095.78;5016183;28;1605;-57
2021/10/27 07:00:56;;;;;;;;;;;;;;;19.59;62.58;102091.38;5010027;28;1217;-56
2021/10/27 07:06:26;;;;;;;;;;;;;;;19.67;61.63;102097.91;5018311;28;2434;-56
2021/10/27 07:17:06;;;;;;;;;;;;;;;19.65;61.59;102098.97;5026843;28;1991;-56
2021/10/27 07:19:32;;;;;;;;;;;;;;;19.65;61.76;102088.25;5033428;28;1406;-56
2021/10/27 07:21:59;;;;;;;;;;;;;;;19.61;61.60;102100.16;5029846;28;1532;-58
2021/10/27 07:24:25;;;;;;;;;;;;;;;19.50;62.50;102094.69;5036554;28;1525;-55
2021/10/27 07:26:53;;;;;;;;;;;;;;;19.43;62.15;102087.06;5031704;28;1486;-56
2021/10/27 07:29:20;;;;;;;;;;;;;;;19.46;62.95;102089.53;5028748;28;1532;-56
2021/10/27 07:31:49;;;;;;;;;;;;;;;19.63;63.10;102100.91;5030310;28;1463;-56
2021/10/27 07:34:18;;;;;;;;;;;;;;;19.64;62.02;102089.25;5028959;28;1406;-56
2021/10/27 07:42:09;;;;;;;;;;;;;;;19.53;52.78;102094.47;5033999;28;1475;-56
2021/10/27 07:44:36;;;;;;;;;;;;;;;19.08;60.20;102093.03;5032735;28;1619;-57
2021/10/27 07:47:02;;;;;;;;;;;;;;;19.43;60.80;102094.25;5033904;28;1433;-57
2021/10/27 07:49:30;;;;;;;;;;;;;;;19.73;61.64;102112.75;5031273;28;1437;-56
2021/10/27 07:51:57;;;;;;;;;;;;;;;19.67;61.15;102089.00;5030929;28;1429;-58
2021/10/27 07:54:24;;;;;;;;;;;;;;;19.59;61.16;102096.75;5030841;28;1470;-56
2021/10/27 07:56:51;;;;;;;;;;;;;;;19.62;61.97;102089.34;5030247;28;1906;-57
2021/10/27 07:59:20;;;;;;;;;;;;;;;19.61;61.98;102108.22;5029467;28;1480;-56
2021/10/27 08:01:58;;;;;;;;;;;;;;;19.61;62.62;102110.91;5033151;28;1868;-58
2021/10/27 08:04:24;;;;;;;;;;;;;;;19.50;62.74;102106.28;5024229;28;1497;-56
2021/10/27 08:06:52;;;;;;;;;;;;;;;19.57;63.56;102101.34;5030503;28;1443;-57
2021/10/27 08:09:19;;;;;;;;;;;;;;;19.60;62.54;102098.47;5033077;28;1520;-58
2021/10/27 08:11:45;;;;;;;;;;;;;;;19.52;63.63;102104.38;5034499;28;1893;-57
2021/10/27 08:14:12;;;;;;;;;;;;;;;19.64;63.08;102105.34;5029571;28;1436;-60
2021/10/27 08:16:39;;;;;;;;;;;;;;;19.59;62.90;102104.78;5030062;28;1977;-55
2021/10/27 08:19:05;;;;;;;;;;;;;;;19.64;63.02;102105.34;5029691;28;1449;-57
2021/10/27 08:21:32;;;;;;;;;;;;;;;19.59;63.37;102119.06;5034380;28;1597;-61
2021/10/27 08:24:01;;;;;;;;;;;;;;;19.63;63.68;102111.66;5031226;28;1481;-64
2021/10/27 08:26:27;;;;;;;;;;;;;;;19.56;63.19;102102.34;5035011;28;1458;-59
2021/10/27 08:28:56;;;;;;;;;;;;;;;19.59;64.10;102111.00;5031593;28;1465;-59
2021/10/27 08:31:36;;;;;;;;;;;;;;;19.64;64.05;102106.19;5031868;28;1575;-59
2021/10/27 08:34:11;;;;;;;;;;;;;;;19.60;63.43;102106.53;5021343;28;1741;-58
2021/10/27 08:36:37;;;;;;;;;;;;;;;19.55;63.84;102103.28;5029940;28;1898;-59
2021/10/27 08:39:05;;;;;;;;;;;;;;;19.57;63.35;102109.41;5031573;28;1454;-59
2021/10/27 08:41:32;;;;;;;;;;;;;;;19.64;64.30;102110.72;5033870;28;1165;-57
2021/10/27 08:43:59;;;;;;;;;;;;;;;19.65;63.22;102105.22;5031598;28;1553;-58
2021/10/27 08:46:26;;;;;;;;;;;;;;;19.52;64.66;102123.16;5026609;28;1573;-59
2021/10/27 08:48:53;;;;;;;;;;;;;;;19.55;63.87;102109.50;5025438;28;1761;-60
2021/10/27 08:51:20;;;;;;;;;;;;;;;19.59;63.29;102126.25;5034364;28;1285;-58
2021/10/27 08:53:47;;;;;;;;;;;;;;;19.61;64.05;102117.13;5036561;28;1406;-58
2021/10/27 08:56:15;;;;;;;;;;;;;;;19.63;63.70;102117.03;5031877;28;1981;-58
2021/10/27 08:58:44;;;;;;;;;;;;;;;19.56;64.03;102126.47;5025424;28;1445;-58
2021/10/27 09:01:15;;;;;;;;;;;;;;;19.55;64.93;102111.34;5032955;28;1473;-59
2021/10/27 09:04:04;;;;;;;;;;;;;;;19.56;64.23;102103.19;5031111;28;1449;-58
2021/10/27 09:06:35;;;;;;;;;;;;;;;19.63;64.39;102103.59;5026510;28;1523;-66
2021/10/27 09:09:23;;;;;;;;;;;;;;;19.60;64.34;102112.75;5031862;28;1511;-60
2021/10/27 09:15:10;;;;;;;;;;;;;;;19.57;64.58;102102.19;5025478;28;1438;-58
2021/10/27 09:34:36;;;;;;;;;;;;;;;19.61;63.29;102076.88;5023750;28;1576;-57
2021/10/27 09:37:24;;;;;;;;;;;;;;;19.64;64.33;102082.03;5023871;28;1931;-58
2021/10/27 10:04:02;;;;;;;;;;;;;;;19.92;62.73;102055.09;5030263;28;1918;-59
2021/10/27 10:05:15;;;;;;;;;;;;;;;19.88;63.35;102045.56;5030574;28;1528;-59
2021/10/27 10:07:42;;;;;;;;;;;;;;;20.05;63.15;102046.06;5028415;28;1488;-58
2021/10/27 10:10:11;;;;;;;;;;;;;;;19.96;62.84;102033.28;5029090;28;1477;-59
2021/10/27 10:12:39;;;;;;;;;;;;;;;19.94;63.72;102042.44;5023009;28;1376;-58
2021/10/27 10:15:06;;;;;;;;;;;;;;;19.97;62.29;102047.56;5029785;28;1739;-58
2021/10/27 10:17:35;;;;;;;;;;;;;;;20.13;63.02;102042.78;5027797;28;1906;-59
2021/10/27 10:20:02;;;;;;;;;;;;;;;20.00;62.10;102039.28;5025390;28;1578;-58
2021/10/27 10:22:30;;;;;;;;;;;;;;;19.96;62.97;102035.13;5024714;28;1571;-57
2021/10/27 10:25:24;;;;;;;;;;;;;;;19.84;61.36;102048.44;5023683;28;1461;-60
2021/10/27 10:27:52;;;;;;;;;;;;;;;19.91;62.57;102046.16;5026878;28;1547;-58
2021/10/27 10:30:24;;;;;;;;;;;;;;;19.87;62.35;102055.41;5026895;28;1265;-57
2021/10/27 10:33:02;;;;;;;;;;;;;;;19.88;63.46;102045.56;5025176;28;1536;-59
2021/10/27 10:35:40;;;;;;;;;;;;;;;19.87;62.43;102042.00;5030175;28;1323;-58
2021/10/27 10:38:24;;;;;;;;;;;;;;;19.85;63.46;102036.72;5028293;28;1686;-58
2021/10/27 10:41:12;;;;;;;;;;;;;;;19.83;63.30;102038.66;5024084;28;1404;-59
2021/10/27 10:56:09;;;;;;;;;;;;;;;19.78;63.04;102050.72;5028024;28;1557;-59
2021/10/27 10:58:58;;;;;;;;;;;;;;;19.69;62.47;102044.13;5022308;28;1833;-57
2021/10/27 11:01:39;;;;;;;;;;;;;;;19.71;63.25;102049.41;5028692;28;1628;-59
2021/10/27 11:22:21;;;;;;;;;;;;;;;19.58;62.78;102027.97;5027460;28;1537;-58
2021/10/27 11:23:56;;;;;;;;;;;;;;;19.55;63.20;102009.38;5031070;28;1508;-58
2021/10/27 11:26:53;;;;;;;;;;;;;;;19.51;62.56;102006.03;5029656;28;1386;-56
2021/10/27 11:37:49;;;;;;;;;;;;;;;19.42;62.37;101988.78;5030256;28;1980;-59
2021/10/27 11:40:31;;;;;;;;;;;;;;;19.46;62.73;102006.38;5029274;28;1612;-57
2021/10/27 11:43:01;;;;;;;;;;;;;;;19.47;62.68;102002.72;5027584;28;1484;-58
2021/10/27 11:45:41;;;;;;;;;;;;;;;19.43;61.99;101997.69;5027821;28;1426;-57
2021/10/27 11:48:14;;;;;;;;;;;;;;;19.43;62.40;101998.53;5032216;28;1578;-59
2021/10/27 11:50:41;;;;;;;;;;;;;;;19.42;62.19;101991.47;5031065;28;1609;-58
2021/10/27 11:53:17;;;;;;;;;;;;;;;19.44;63.27;102002.94;5028501;28;1363;-58
2021/10/27 11:55:45;;;;;;;;;;;;;;;19.36;63.24;101983.84;5033023;28;1518;-58
2021/10/27 11:58:12;;;;;;;;;;;;;;;19.37;61.95;101988.25;5032428;28;1967;-58
2021/10/27 12:00:41;;;;;;;;;;;;;;;19.39;61.88;102002.41;5028119;28;1449;-57
2021/10/27 12:03:10;;;;;;;;;;;;;;;19.35;62.77;101984.81;5032060;28;1508;-58
2021/10/27 12:05:42;;;;;;;;;;;;;;;19.38;62.17;101987.28;5035184;28;1297;-58
2021/10/27 12:13:44;;;;;;;;;;;;;;;19.35;63.92;102000.06;5022928;28;1884;-58
2021/10/27 12:16:29;;;;;;;;;;;;;;;19.34;62.06;101988.47;5028234;28;1910;-58
2021/10/27 12:18:57;;;;;;;;;;;;;;;19.33;62.06;101992.09;5026003;28;1367;-61
2021/10/27 12:21:25;;;;;;;;;;;;;;;19.29;62.43;101982.56;5032626;28;1429;-57
2021/10/27 12:23:52;;;;;;;;;;;;;;;19.13;61.30;101968.53;5033844;28;1413;-58
2021/10/27 12:26:21;;;;;;;;;;;;;;;19.24;63.59;101985.56;5028858;28;1527;-58
2021/10/27 12:28:51;;;;;;;;;;;;;;;19.21;63.33;101963.47;5029965;28;1458;-59
2021/10/27 12:31:18;;;;;;;;;;;;;;;19.27;62.74;101966.56;5030916;28;1453;-61
2021/10/27 12:33:45;;;;;;;;;;;;;;;19.30;63.41;101978.94;5031975;28;1417;-58
2021/10/27 12:36:12;;;;;;;;;;;;;;;19.32;62.35;101971.63;5030189;28;1977;-57
2021/10/27 12:38:40;;;;;;;;;;;;;;;19.26;63.07;101972.91;5029132;28;1445;-60
2021/10/27 12:41:13;;;;;;;;;;;;;;;19.18;63.19;101961.00;5032256;28;1437;-58
2021/10/27 12:43:42;;;;;;;;;;;;;;;19.21;63.18;101964.31;5029507;28;1454;-58
2021/10/27 12:46:18;;;;;;;;;;;;;;;19.20;62.86;101959.94;5021447;28;1411;-60
2021/10/27 12:48:45;;;;;;;;;;;;;;;19.25;62.66;101963.13;5029927;28;1223;-59
2021/10/27 12:51:12;;;;;;;;;;;;;;;19.17;63.24;101954.78;5031277;28;1488;-57
2021/10/27 12:53:40;;;;;;;;;;;;;;;19.18;63.28;101961.00;5031514;28;1488;-56
2021/10/27 12:56:07;;;;;;;;;;;;;;;19.18;62.84;101955.63;5029654;28;1472;-56
2021/10/27 12:58:35;;;;;;;;;;;;;;;19.05;61.39;101944.91;5027701;28;1373;-56
2021/10/27 13:01:16;;;;;;;;;;;;;;;19.08;63.24;101961.66;5021482;28;1586;-57
2021/10/27 13:06:42;;;;;;;;;;;;;;;19.07;62.88;101949.19;5028619;28;1573;-56
2021/10/27 13:09:18;;;;;;;;;;;;;;;19.03;63.24;101936.97;5028579;28;1495;-56
2021/10/27 13:14:43;;;;;;;;;;;;;;;19.00;63.85;101942.56;5028455;28;1630;-58
2021/10/27 13:20:12;;;;;;;;;;;;;;;19.01;62.73;101944.28;5032180;28;1475;-56
2021/10/27 13:30:52;;;;;;;;;;;;;;;18.96;62.87;101941.06;5031652;28;1441;-56
2021/10/27 13:33:22;;;;;;;;;;;;;;;18.99;62.68;101945.34;5025134;28;1505;-58
2021/10/27 13:35:49;;;;;;;;;;;;;;;18.95;63.04;101939.34;5030568;28;1580;-56
2021/10/27 13:38:17;;;;;;;;;;;;;;;18.96;63.34;101942.88;5028878;28;1906;-58
2021/10/27 13:40:45;;;;;;;;;;;;;;;18.97;62.88;101942.78;5028402;28;1448;-56
2021/10/27 13:43:15;;;;;;;;;;;;;;;18.94;63.40;101937.63;5026332;28;1612;-58
2021/10/27 13:45:48;;;;;;;;;;;;;;;18.92;62.76;101946.72;5026498;28;1660;-57
2021/10/27 13:48:20;;;;;;;;;;;;;;;18.94;62.48;101943.00;5032487;28;1512;-58
2021/10/27 14:05:55;;;;;;;;;;;;;;;18.89;63.02;101947.81;5021716;28;1552;-56
2021/10/27 14:07:42;;;;;;;;;;;;;;;18.87;62.86;101928.28;5028613;28;1485;-56
2021/10/27 14:10:12;;;;;;;;;;;;;;;18.93;62.99;101938.59;5025576;28;1398;-58
2021/10/27 14:12:46;;;;;;;;;;;;;;;18.88;63.32;101932.72;5030015;28;1222;-58
2021/10/27 14:18:14;;;;;;;;;;;;;;;18.87;63.22;101941.69;5028370;28;2263;-58
2021/10/27 14:40:20;;;;;;;;;;;;;;;18.89;63.97;101934.41;5008630;28;1510;-57
2021/10/27 14:51:13;;;;;;;;;;;;;;;18.88;64.24;101952.31;5001260;28;1580;-56
2021/10/27 15:21:09;;;;;;;;;;;;;;;18.75;63.76;101970.16;5031813;28;1592;-56
2021/10/27 15:23:41;;;;;;;;;;;;;;;18.77;63.75;101972.75;5028605;28;1477;-56
2021/10/27 15:29:05;;;;;;;;;;;;;;;18.76;63.94;101987.97;5032583;28;1571;-58
2021/10/27 15:31:40;;;;;;;;;;;;;;;18.64;62.80;101984.28;5030913;28;1490;-56
2021/10/27 15:42:51;;;;;;;;;;;;;;;18.74;63.57;101987.22;4979017;28;1472;-58
2021/10/27 15:45:39;;;;;;;;;;;;;;;18.77;63.93;101996.84;5021846;28;1353;-59
2021/10/27 15:50:53;;;;;;;;;;;;;;;18.78;64.68;102001.25;5031804;28;1493;-56
2021/10/27 15:53:19;;;;;;;;;;;;;;;18.77;64.52;101999.53;5032941;28;1197;-56
2021/10/27 15:55:46;;;;;;;;;;;;;;;18.76;66.12;102008.53;5029885;28;1321;-56
2021/10/27 15:58:13;;;;;;;;;;;;;;;18.77;65.96;102010.25;5033125;28;1906;-58
2021/10/27 16:00:40;;;;;;;;;;;;;;;18.73;65.85;102001.56;5029887;28;1543;-56
2021/10/27 16:03:09;;;;;;;;;;;;;;;18.79;66.66;102014.56;5028059;28;1573;-58
2021/10/27 16:05:38;;;;;;;;;;;;;;;18.81;65.88;102019.84;5029812;28;1182;-58
2021/10/27 16:08:05;;;;;;;;;;;;;;;18.70;64.43;102020.50;5032753;28;2102;-55
2021/10/27 16:10:33;;;;;;;;;;;;;;;18.63;65.26;102021.91;5034453;28;1473;-58
2021/10/27 16:13:00;;;;;;;;;;;;;;;18.73;66.00;102023.00;5032211;28;1964;-59
2021/10/27 16:15:36;;;;;;;;;;;;;;;18.69;65.77;102021.50;5032286;28;1449;-57
2021/10/27 16:18:04;;;;;;;;;;;;;;;18.67;66.00;102020.72;5030117;28;1906;-58
2021/10/27 16:20:31;;;;;;;;;;;;;;;18.60;65.63;102036.38;5029972;28;1308;-61
2021/10/27 16:22:58;;;;;;;;;;;;;;;18.45;64.68;102032.03;5026225;28;1461;-57
2021/10/27 16:25:24;;;;;;;;;;;;;;;18.51;64.10;102036.97;5031592;28;1907;-58
2021/10/27 16:27:51;;;;;;;;;;;;;;;18.51;64.20;102047.69;5032364;28;1408;-57
2021/10/27 16:30:18;;;;;;;;;;;;;;;18.47;65.29;102036.31;5027845;28;1307;-57
2021/10/27 16:32:45;;;;;;;;;;;;;;;18.58;65.86;102045.44;5030141;28;1866;-58